createdAt,value
2023-02-18T00:03:31.166Z,1.48
2023-02-18T00:09:32.716Z,1.23
2023-02-18T00:15:38.033Z,1.20
2023-02-18T00:21:40.030Z,1.20
2023-02-18T00:27:41.511Z,1.55
2023-02-18T00:33:43.281Z,1.40
2023-02-18T00:39:45.136Z,1.13
2023-02-18T00:45:48.002Z,1.20
2023-02-18T00:51:49.489Z,1.10
2023-02-18T00:57:51.006Z,1.02
2023-02-18T01:03:52.645Z,1.10
2023-02-18T01:09:54.138Z,0.80
2023-02-18T01:15:55.733Z,0.77
2023-02-18T01:21:57.251Z,1.17
2023-02-18T01:27:58.869Z,0.90
2023-02-18T01:34:00.430Z,1.08
2023-02-18T01:40:04.375Z,0.80
2023-02-18T01:46:17.965Z,0.90
2023-02-18T01:52:26.150Z,1.03
2023-02-18T01:58:27.684Z,1.17
2023-02-18T02:04:29.369Z,1.00
2023-02-18T02:10:53.933Z,0.80
2023-02-18T02:17:01.408Z,1.08
2023-02-18T02:23:21.885Z,1.10
2023-02-18T02:29:26.462Z,1.20
2023-02-18T02:35:31.632Z,1.10
2023-02-18T02:41:39.286Z,1.27
2023-02-18T02:47:49.089Z,1.00
2023-02-18T02:53:50.615Z,1.33
2023-02-18T02:59:55.413Z,1.30
2023-02-18T03:06:04.561Z,1.50
2023-02-18T03:12:12.175Z,0.83
2023-02-18T03:18:26.175Z,1.20
2023-02-18T03:24:34.314Z,1.93
2023-02-18T03:30:42.009Z,1.30
2023-02-18T03:36:44.163Z,1.20
2023-02-18T03:42:47.905Z,1.67
2023-02-18T03:48:49.464Z,1.65
2023-02-18T03:54:51.077Z,1.20
2023-02-18T04:00:53.827Z,1.52
2023-02-18T04:06:55.382Z,1.08
2023-02-18T04:12:56.878Z,1.17
2023-02-18T04:18:58.502Z,1.00
2023-02-18T04:25:00.610Z,1.23
2023-02-18T04:31:02.317Z,1.50
2023-02-18T04:37:03.905Z,1.98
2023-02-18T04:43:05.820Z,2.03
2023-02-18T04:49:07.284Z,2.55
2023-02-18T04:55:08.775Z,3.13
2023-02-18T05:01:10.712Z,3.50
2023-02-18T05:07:12.307Z,3.67
2023-02-18T05:13:13.903Z,3.40
2023-02-18T05:19:16.255Z,3.42
2023-02-18T05:25:17.896Z,3.30
2023-02-18T05:31:19.508Z,3.10
2023-02-18T05:37:21.080Z,3.90
2023-02-18T05:43:22.646Z,4.40
2023-02-18T05:49:24.453Z,4.03
2023-02-18T05:55:25.982Z,4.83
2023-02-18T06:01:27.583Z,5.10
2023-02-18T06:07:29.106Z,5.63
2023-02-18T06:13:30.635Z,5.10
2023-02-18T06:19:32.243Z,6.10
2023-02-18T06:25:33.758Z,6.20
2023-02-18T06:31:35.362Z,6.53
2023-02-18T06:37:37.123Z,6.60
2023-02-18T06:43:38.880Z,6.40
2023-02-18T06:49:40.418Z,6.15
2023-02-18T06:55:42.592Z,6.43
2023-02-18T07:01:44.093Z,6.82
2023-02-18T07:07:45.644Z,6.97
2023-02-18T07:13:47.171Z,6.90
2023-02-18T07:19:48.701Z,7.15
2023-02-18T07:25:50.233Z,6.70
2023-02-18T07:31:51.900Z,6.38
2023-02-18T07:37:53.462Z,5.68
2023-02-18T07:43:54.973Z,4.97
2023-02-18T07:49:56.420Z,5.90
2023-02-18T07:56:00.919Z,4.53
2023-02-18T08:02:02.859Z,4.93
2023-02-18T08:08:04.433Z,5.22
2023-02-18T08:14:05.905Z,3.73
2023-02-18T08:20:07.921Z,3.28
2023-02-18T08:26:09.937Z,3.27
2023-02-18T08:32:16.497Z,2.58
2023-02-18T08:38:18.679Z,2.58
2023-02-18T08:44:20.216Z,1.93
2023-02-18T08:50:26.017Z,1.80
2023-02-18T08:56:28.146Z,1.20
2023-02-18T09:02:29.687Z,0.80
2023-02-18T09:08:31.212Z,0.90
2023-02-18T09:14:32.758Z,0.70
2023-02-18T09:20:34.375Z,0.80
2023-02-18T09:26:36.578Z,0.80
2023-02-18T09:32:38.148Z,0.70
2023-02-18T09:38:40.834Z,0.60
2023-02-18T09:44:45.114Z,0.50
2023-02-18T09:50:52.324Z,0.50
2023-02-18T09:56:54.144Z,0.50
2023-02-18T10:02:57.618Z,0.40
2023-02-18T10:09:01.978Z,0.40
2023-02-18T10:15:03.629Z,0.50
2023-02-18T10:21:07.618Z,0.40
2023-02-18T10:27:09.889Z,0.67
2023-02-18T10:33:27.116Z,0.30
2023-02-18T10:39:39.100Z,0.30
2023-02-18T10:46:03.632Z,0.30
2023-02-18T10:52:06.649Z,0.30
2023-02-18T10:58:28.350Z,0.33
2023-02-18T11:04:37.915Z,0.30
2023-02-18T11:10:41.275Z,0.22
2023-02-18T11:16:43.954Z,0.20
2023-02-18T11:22:45.435Z,0.30
2023-02-18T11:28:48.535Z,0.43
2023-02-18T11:34:50.308Z,0.40
2023-02-18T11:41:02.932Z,0.50
2023-02-18T11:47:06.013Z,0.30
2023-02-18T11:53:25.886Z,0.38
2023-02-18T11:59:29.262Z,0.50
2023-02-18T12:05:32.459Z,0.32
2023-02-18T12:11:40.267Z,0.55
2023-02-18T12:18:05.113Z,0.40
2023-02-18T12:24:18.779Z,0.40
2023-02-18T12:30:28.734Z,0.30
2023-02-18T12:36:30.227Z,0.30
2023-02-18T12:42:51.021Z,0.40
2023-02-18T12:49:00.658Z,0.63
2023-02-18T12:55:20.958Z,0.40
2023-02-18T13:01:34.080Z,0.40
2023-02-18T13:07:58.668Z,0.40
2023-02-18T13:14:02.998Z,0.40
2023-02-18T13:20:07.576Z,0.37
2023-02-18T13:26:12.185Z,0.45
2023-02-18T13:32:23.154Z,0.60
2023-02-18T13:38:43.162Z,0.60
2023-02-18T13:45:03.505Z,0.90
2023-02-18T13:51:06.878Z,0.40
2023-02-18T13:57:21.849Z,0.70
2023-02-18T14:03:33.505Z,0.60
2023-02-18T14:09:36.276Z,0.70
2023-02-18T14:15:38.043Z,0.60
2023-02-18T14:21:41.003Z,0.60
2023-02-18T14:27:43.085Z,0.52
2023-02-18T14:34:02.603Z,0.67
2023-02-18T14:40:22.938Z,0.52
2023-02-18T14:46:50.671Z,0.55
2023-02-18T14:52:54.163Z,0.43
2023-02-18T14:58:58.024Z,0.55
2023-02-18T15:05:32.119Z,0.70
2023-02-18T15:11:39.416Z,0.70
2023-02-18T15:17:44.916Z,0.80
2023-02-18T15:23:46.505Z,0.70
2023-02-18T15:29:52.436Z,0.85
2023-02-18T15:36:02.050Z,0.50
2023-02-18T15:42:07.827Z,0.50
2023-02-18T15:48:20.080Z,0.30
2023-02-18T15:54:22.869Z,0.63
2023-02-18T16:00:33.034Z,0.70
2023-02-18T16:06:37.312Z,0.50
2023-02-18T16:12:39.350Z,0.52
2023-02-18T16:18:41.639Z,0.55
2023-02-18T16:24:43.122Z,0.60
2023-02-18T16:30:47.321Z,0.60
2023-02-18T16:37:07.522Z,0.50
2023-02-18T16:43:15.484Z,0.60
2023-02-18T16:49:17.359Z,0.82
2023-02-18T16:55:20.624Z,0.90
2023-02-18T17:01:29.606Z,0.85
2023-02-18T17:07:32.695Z,1.00
2023-02-18T17:13:34.181Z,0.90
2023-02-18T17:19:35.847Z,0.90
2023-02-18T17:25:39.883Z,1.00
2023-02-18T17:31:44.473Z,1.20
2023-02-18T17:37:46.415Z,1.20
2023-02-18T17:43:47.848Z,1.20
2023-02-18T17:49:49.305Z,1.00
2023-02-18T17:55:50.816Z,1.17
2023-02-18T18:01:52.284Z,1.08
2023-02-18T18:07:54.464Z,1.20
2023-02-18T18:13:57.915Z,1.65
2023-02-18T18:19:59.353Z,1.52
2023-02-18T18:26:01.126Z,1.73
2023-02-18T18:32:02.737Z,1.77
2023-02-18T18:38:04.553Z,1.60
2023-02-18T18:44:07.104Z,1.58
2023-02-18T18:50:08.607Z,1.33
2023-02-18T18:56:11.593Z,1.33
2023-02-18T19:02:15.611Z,1.80
2023-02-18T19:08:19.372Z,1.80
2023-02-18T19:14:21.970Z,1.65
2023-02-18T19:20:24.845Z,1.67
2023-02-18T19:26:26.523Z,1.80
2023-02-18T19:32:28.081Z,1.60
2023-02-18T19:38:29.524Z,1.60
2023-02-18T19:44:34.327Z,1.50
2023-02-18T19:50:35.930Z,1.70
2023-02-18T19:56:37.482Z,1.87
2023-02-18T20:02:39.524Z,1.60
2023-02-18T20:08:41.494Z,1.90
2023-02-18T20:14:44.211Z,1.90
2023-02-18T20:20:49.517Z,1.75
2023-02-18T20:26:52.565Z,1.40
2023-02-18T20:32:54.235Z,2.00
2023-02-18T20:39:00.489Z,1.93
2023-02-18T20:45:06.731Z,1.95
2023-02-18T20:51:09.900Z,1.80
2023-02-18T20:57:11.932Z,1.90
2023-02-18T21:03:13.490Z,2.30
2023-02-18T21:09:16.043Z,2.47
2023-02-18T21:15:18.083Z,2.08
2023-02-18T21:21:20.353Z,2.20
2023-02-18T21:27:21.950Z,2.50
2023-02-18T21:33:25.376Z,2.80
2023-02-18T21:39:27.180Z,2.73
2023-02-18T21:45:31.999Z,2.47
2023-02-18T21:51:59.221Z,2.88
2023-02-18T21:58:00.809Z,2.60
2023-02-18T22:04:02.322Z,2.42
2023-02-18T22:10:03.983Z,2.87
2023-02-18T22:16:06.321Z,2.65
2023-02-18T22:22:07.963Z,2.90
2023-02-18T22:28:09.425Z,2.90
2023-02-18T22:34:10.968Z,2.58
2023-02-18T22:40:12.440Z,3.00
2023-02-18T22:46:15.403Z,2.33
2023-02-18T22:52:16.854Z,3.05
2023-02-18T22:58:18.494Z,2.90
2023-02-18T23:04:20.595Z,3.03
2023-02-18T23:10:22.157Z,3.10
2023-02-18T23:16:23.645Z,3.65
2023-02-18T23:22:28.486Z,3.45
2023-02-18T23:28:47.367Z,3.47
2023-02-18T23:34:51.643Z,2.90
2023-02-18T23:40:53.106Z,3.20
2023-02-18T23:46:54.625Z,3.10
2023-02-18T23:52:56.125Z,3.50
2023-02-18T23:59:00.345Z,3.60
